createdAt,value
2018-04-29T00:00:10.987Z,11.17
2018-04-29T00:02:03.834Z,11.26
2018-04-29T00:03:03.812Z,11.25
2018-04-29T00:04:56.671Z,11.18
2018-04-29T00:05:56.644Z,11.14
2018-04-29T00:07:49.488Z,11.14
2018-04-29T00:08:49.467Z,11.14
2018-04-29T00:10:42.324Z,11.14
2018-04-29T00:11:42.292Z,11.05
2018-04-29T00:13:35.143Z,11.00
2018-04-29T00:14:35.119Z,10.97
2018-04-29T00:16:27.979Z,11.00
2018-04-29T00:17:27.944Z,11.00
2018-04-29T00:19:20.794Z,10.99
2018-04-29T00:20:20.772Z,10.96
2018-04-29T00:22:13.633Z,10.94
2018-04-29T00:23:13.599Z,10.81
2018-04-29T00:25:06.446Z,10.84
2018-04-29T00:26:06.425Z,10.82
2018-04-29T00:27:59.291Z,10.90
2018-04-29T00:28:59.257Z,10.86
2018-04-29T00:30:52.102Z,10.92
2018-04-29T00:31:52.080Z,10.93
2018-04-29T00:33:44.940Z,10.76
2018-04-29T00:34:44.909Z,10.82
2018-04-29T00:36:37.753Z,10.79
2018-04-29T00:37:37.733Z,10.86
2018-04-29T00:39:30.593Z,10.97
2018-04-29T00:40:30.562Z,10.96
2018-04-29T00:42:23.984Z,10.96
2018-04-29T00:43:23.388Z,10.92
2018-04-29T00:45:16.249Z,10.99
2018-04-29T00:46:16.209Z,11.00
2018-04-29T00:48:09.056Z,10.94
2018-04-29T00:49:09.035Z,10.96
2018-04-29T00:51:01.898Z,10.92
2018-04-29T00:52:01.868Z,10.79
2018-04-29T00:53:54.713Z,10.92
2018-04-29T00:54:54.695Z,10.84
2018-04-29T00:56:47.551Z,10.97
2018-04-29T00:57:47.520Z,10.96
2018-04-29T00:59:40.363Z,10.86
2018-04-29T01:00:40.341Z,10.90
2018-04-29T01:02:33.205Z,10.87
2018-04-29T01:03:33.170Z,10.90
2018-04-29T01:05:26.016Z,10.79
2018-04-29T01:06:25.996Z,10.86
2018-04-29T01:08:18.855Z,10.87
2018-04-29T01:09:18.820Z,10.81
2018-04-29T01:11:11.670Z,10.71
2018-04-29T01:12:11.645Z,10.72
2018-04-29T01:14:04.504Z,10.75
2018-04-29T01:15:04.472Z,10.75
2018-04-29T01:16:57.317Z,10.67
2018-04-29T01:17:57.296Z,10.69
2018-04-29T01:19:50.154Z,10.71
2018-04-29T01:20:50.121Z,10.63
2018-04-29T01:22:42.973Z,10.63
2018-04-29T01:23:42.948Z,10.51
2018-04-29T01:25:35.810Z,10.60
2018-04-29T01:26:35.773Z,10.61
2018-04-29T01:28:28.616Z,10.60
2018-04-29T01:29:28.598Z,10.63
2018-04-29T01:31:21.458Z,10.56
2018-04-29T01:32:21.421Z,10.56
2018-04-29T01:34:14.265Z,10.42
2018-04-29T01:35:14.249Z,10.42
2018-04-29T01:37:07.108Z,10.35
2018-04-29T01:38:07.069Z,10.38
2018-04-29T01:39:59.915Z,10.40
2018-04-29T01:40:59.892Z,10.30
2018-04-29T01:42:52.751Z,10.42
2018-04-29T01:43:52.720Z,10.40
2018-04-29T01:45:45.566Z,10.46
2018-04-29T01:46:45.545Z,10.54
2018-04-29T01:48:38.402Z,10.54
2018-04-29T01:49:38.367Z,10.60
2018-04-29T01:51:31.235Z,10.42
2018-04-29T01:52:31.194Z,10.41
2018-04-29T01:54:24.055Z,10.49
2018-04-29T01:55:24.018Z,10.46
2018-04-29T01:57:16.863Z,10.44
2018-04-29T01:58:16.843Z,10.53
2018-04-29T02:00:09.704Z,10.54
2018-04-29T02:01:09.663Z,10.49
2018-04-29T02:03:02.530Z,10.54
2018-04-29T02:04:02.494Z,10.49
2018-04-29T02:05:55.356Z,10.57
2018-04-29T02:06:55.320Z,10.51
2018-04-29T02:08:48.171Z,10.57
2018-04-29T02:09:48.143Z,10.64
2018-04-29T02:11:41.003Z,10.57
2018-04-29T02:12:40.966Z,10.57
2018-04-29T02:14:33.824Z,10.64
2018-04-29T02:15:33.796Z,10.57
2018-04-29T02:17:26.655Z,10.64
2018-04-29T02:18:26.618Z,10.51
2018-04-29T02:20:19.462Z,10.61
2018-04-29T02:21:19.439Z,10.56
2018-04-29T02:23:12.300Z,10.56
2018-04-29T02:24:12.264Z,10.56
2018-04-29T02:26:05.116Z,10.57
2018-04-29T02:27:05.092Z,10.60
2018-04-29T02:28:57.956Z,10.57
2018-04-29T02:29:57.920Z,10.56
2018-04-29T02:31:50.768Z,10.57
2018-04-29T02:32:50.748Z,10.63
2018-04-29T02:34:43.606Z,10.57
2018-04-29T02:35:43.569Z,10.57
2018-04-29T02:37:36.415Z,10.61
2018-04-29T02:38:36.393Z,10.56
2018-04-29T02:40:29.254Z,10.61
2018-04-29T02:41:29.218Z,10.67
2018-04-29T02:43:22.070Z,10.67
2018-04-29T02:44:22.041Z,10.68
2018-04-29T02:46:14.901Z,10.68
2018-04-29T02:47:14.866Z,10.71
2018-04-29T02:49:07.713Z,10.69
2018-04-29T02:50:07.689Z,10.68
2018-04-29T02:52:00.548Z,10.68
2018-04-29T02:53:00.513Z,10.68
2018-04-29T02:54:53.360Z,10.81
2018-04-29T02:55:53.343Z,10.75
2018-04-29T02:57:46.195Z,10.71
2018-04-29T02:58:46.161Z,10.68
2018-04-29T03:00:39.009Z,10.79
2018-04-29T03:01:38.996Z,10.71
2018-04-29T03:03:31.846Z,10.76
2018-04-29T03:04:31.812Z,10.68
2018-04-29T03:06:24.662Z,10.68
2018-04-29T03:07:24.640Z,10.71
2018-04-29T03:09:17.499Z,10.64
2018-04-29T03:10:17.464Z,10.68
2018-04-29T03:12:10.312Z,10.74
2018-04-29T03:13:10.289Z,10.68
2018-04-29T03:15:03.153Z,10.63
2018-04-29T03:16:03.114Z,10.67
2018-04-29T03:17:55.960Z,10.69
2018-04-29T03:18:55.941Z,10.59
2018-04-29T03:20:48.799Z,10.61
2018-04-29T03:21:48.765Z,10.60
2018-04-29T03:23:41.615Z,10.63
2018-04-29T03:24:41.592Z,10.57
2018-04-29T03:26:34.508Z,10.60
2018-04-29T03:27:34.428Z,10.57
2018-04-29T03:29:27.273Z,10.60
2018-04-29T03:30:27.249Z,10.53
2018-04-29T03:32:20.109Z,10.54
2018-04-29T03:33:20.074Z,10.51
2018-04-29T03:35:12.921Z,10.56
2018-04-29T03:36:12.898Z,10.51
2018-04-29T03:38:05.837Z,10.41
2018-04-29T03:39:05.730Z,10.51
2018-04-29T03:40:58.578Z,10.41
2018-04-29T03:41:58.555Z,10.46
2018-04-29T03:43:51.417Z,10.41
2018-04-29T03:44:51.381Z,10.48
2018-04-29T03:46:44.225Z,10.31
2018-04-29T03:47:44.205Z,10.42
2018-04-29T03:49:37.072Z,10.35
2018-04-29T03:50:37.030Z,10.23
2018-04-29T03:52:29.874Z,10.30
2018-04-29T03:53:29.855Z,10.31
2018-04-29T03:55:22.712Z,10.35
2018-04-29T03:56:22.677Z,10.46
2018-04-29T03:58:15.526Z,10.37
2018-04-29T03:59:15.505Z,10.33
2018-04-29T04:01:08.381Z,10.34
2018-04-29T04:02:08.346Z,10.26
2018-04-29T04:04:01.192Z,10.13
2018-04-29T04:05:01.170Z,10.20
2018-04-29T04:06:54.029Z,10.20
2018-04-29T04:07:53.995Z,10.20
2018-04-29T04:09:46.916Z,10.19
2018-04-29T04:10:46.819Z,10.10
2018-04-29T04:12:39.756Z,10.16
2018-04-29T04:13:39.648Z,10.19
2018-04-29T04:15:32.500Z,10.30
2018-04-29T04:16:32.473Z,10.26
2018-04-29T04:18:25.332Z,10.19
2018-04-29T04:19:25.302Z,10.23
2018-04-29T04:21:18.151Z,10.25
2018-04-29T04:22:18.129Z,10.30
2018-04-29T04:24:10.987Z,10.31
2018-04-29T04:25:10.952Z,10.23
2018-04-29T04:27:03.797Z,10.28
2018-04-29T04:28:03.776Z,10.33
2018-04-29T04:29:56.634Z,10.28
2018-04-29T04:30:56.599Z,10.35
2018-04-29T04:32:49.451Z,10.28
2018-04-29T04:33:49.430Z,10.33
2018-04-29T04:35:42.288Z,10.54
2018-04-29T04:36:42.254Z,10.59
2018-04-29T04:38:35.102Z,10.54
2018-04-29T04:39:35.079Z,10.57
2018-04-29T04:41:27.937Z,10.67
2018-04-29T04:42:27.905Z,10.94
2018-04-29T04:44:20.768Z,11.80
2018-04-29T04:45:20.732Z,11.99
2018-04-29T04:47:13.598Z,12.86
2018-04-29T04:48:13.568Z,12.85
2018-04-29T04:50:06.414Z,13.11
2018-04-29T04:51:06.386Z,13.16
2018-04-29T04:52:59.304Z,13.70
2018-04-29T04:53:59.255Z,13.78
2018-04-29T04:55:52.102Z,14.29
2018-04-29T04:56:52.082Z,14.10
2018-04-29T04:58:44.945Z,14.32
2018-04-29T04:59:44.919Z,13.93
2018-04-29T05:01:37.767Z,14.03
2018-04-29T05:02:37.750Z,13.08
2018-04-29T05:04:30.608Z,12.35
2018-04-29T05:05:30.577Z,12.95
2018-04-29T05:07:23.514Z,12.70
2018-04-29T05:08:23.413Z,12.29
2018-04-29T05:10:16.273Z,12.18
2018-04-29T05:11:16.244Z,12.29
2018-04-29T05:13:09.094Z,12.54
2018-04-29T05:14:09.076Z,12.67
2018-04-29T05:16:01.945Z,12.87
2018-04-29T05:17:01.907Z,12.94
2018-04-29T05:18:54.763Z,12.94
2018-04-29T05:19:54.745Z,12.83
2018-04-29T05:21:47.618Z,12.64
2018-04-29T05:22:47.582Z,13.23
2018-04-29T05:24:40.436Z,12.72
2018-04-29T05:25:40.425Z,12.21
2018-04-29T05:27:33.281Z,12.27
2018-04-29T05:28:33.254Z,12.18
2018-04-29T05:30:26.103Z,12.70
2018-04-29T05:31:26.088Z,13.01
2018-04-29T05:33:18.948Z,13.67
2018-04-29T05:34:18.918Z,13.77
2018-04-29T05:36:11.776Z,13.00
2018-04-29T05:37:11.758Z,12.94
2018-04-29T05:39:04.626Z,13.08
2018-04-29T05:40:04.595Z,12.76
2018-04-29T05:41:57.450Z,12.49
2018-04-29T05:42:57.430Z,12.93
2018-04-29T05:44:50.296Z,12.45
2018-04-29T05:45:50.355Z,12.61
2018-04-29T05:47:43.117Z,12.21
2018-04-29T05:48:43.099Z,13.31
2018-04-29T05:50:35.965Z,13.93
2018-04-29T05:51:35.935Z,13.33
2018-04-29T05:53:28.786Z,14.66
2018-04-29T05:54:28.772Z,14.65
2018-04-29T05:56:21.643Z,14.72
2018-04-29T05:57:21.613Z,14.68
2018-04-29T05:59:14.468Z,15.73
2018-04-29T06:00:14.451Z,15.58
2018-04-29T06:02:07.323Z,15.42
2018-04-29T06:03:07.295Z,16.41
2018-04-29T06:05:00.154Z,15.11
2018-04-29T06:06:00.181Z,14.45
2018-04-29T06:07:53.010Z,14.35
2018-04-29T06:08:52.983Z,14.59
2018-04-29T06:10:45.844Z,15.46
2018-04-29T06:11:45.824Z,15.64
2018-04-29T06:13:38.695Z,14.03
2018-04-29T06:14:38.674Z,14.22
2018-04-29T06:16:31.526Z,16.24
2018-04-29T06:17:31.511Z,15.51
2018-04-29T06:19:24.380Z,15.22
2018-04-29T06:20:24.416Z,15.37
2018-04-29T06:22:17.211Z,15.37
2018-04-29T06:23:17.200Z,15.04
2018-04-29T06:25:10.070Z,15.35
2018-04-29T06:26:10.142Z,16.15
2018-04-29T06:28:02.901Z,16.28
2018-04-29T06:29:02.886Z,15.83
2018-04-29T06:30:55.761Z,16.15
2018-04-29T06:31:55.832Z,17.23
2018-04-29T06:33:49.584Z,17.49
2018-04-29T06:34:49.578Z,17.63
2018-04-29T06:36:42.447Z,17.98
2018-04-29T06:37:42.423Z,16.64
2018-04-29T06:39:35.287Z,16.51
2018-04-29T06:40:35.285Z,16.54
2018-04-29T06:42:28.151Z,16.09
2018-04-29T06:43:28.132Z,16.65
2018-04-29T06:45:20.990Z,16.43
2018-04-29T06:46:20.975Z,16.71
2018-04-29T06:48:13.930Z,18.43
2018-04-29T06:49:13.832Z,18.44
2018-04-29T06:51:06.696Z,17.94
2018-04-29T06:52:06.684Z,17.52
2018-04-29T06:53:59.566Z,17.67
2018-04-29T06:54:59.541Z,18.44
2018-04-29T06:56:52.414Z,19.02
2018-04-29T06:57:52.401Z,19.59
2018-04-29T06:59:45.286Z,18.98
2018-04-29T07:00:45.308Z,20.56
2018-04-29T07:02:38.130Z,19.99
2018-04-29T07:03:38.116Z,19.69
2018-04-29T07:05:31.002Z,19.09
2018-04-29T07:06:30.983Z,19.48
2018-04-29T07:08:23.852Z,20.29
2018-04-29T07:09:23.849Z,20.93
2018-04-29T07:11:16.726Z,20.29
2018-04-29T07:12:16.706Z,18.35
2018-04-29T07:14:09.593Z,18.98
2018-04-29T07:15:09.566Z,19.79
2018-04-29T07:17:02.447Z,18.75
2018-04-29T07:18:02.424Z,19.71
2018-04-29T07:19:55.302Z,20.74
2018-04-29T07:20:55.289Z,19.88
2018-04-29T07:22:48.168Z,22.14
2018-04-29T07:23:48.145Z,21.61
2018-04-29T07:25:41.014Z,18.58
2018-04-29T07:26:41.002Z,18.19
2018-04-29T07:28:33.885Z,19.67
2018-04-29T07:29:33.860Z,20.87
2018-04-29T07:31:26.730Z,21.48
2018-04-29T07:32:26.716Z,21.61
2018-04-29T07:34:19.598Z,22.41
2018-04-29T07:35:19.579Z,22.29
2018-04-29T07:37:12.448Z,22.99
2018-04-29T07:38:12.438Z,23.41
2018-04-29T07:40:05.333Z,23.51
2018-04-29T07:41:05.304Z,24.11
2018-04-29T07:42:58.176Z,23.40
2018-04-29T07:43:58.167Z,23.59
2018-04-29T07:45:51.065Z,23.68
2018-04-29T07:46:51.039Z,23.98
2018-04-29T07:48:43.916Z,23.69
2018-04-29T07:49:43.907Z,23.06
2018-04-29T07:51:36.799Z,23.59
2018-04-29T07:52:36.883Z,23.61
2018-04-29T07:54:29.660Z,23.76
2018-04-29T07:55:29.654Z,24.20
2018-04-29T07:57:22.546Z,23.83
2018-04-29T07:58:22.528Z,24.55
2018-04-29T08:00:15.413Z,23.32
2018-04-29T08:01:15.406Z,22.50
2018-04-29T08:03:08.297Z,22.53
2018-04-29T08:04:08.278Z,22.17
2018-04-29T08:06:01.153Z,22.41
2018-04-29T08:07:01.145Z,21.30
2018-04-29T08:08:54.034Z,23.27
2018-04-29T08:09:54.012Z,23.50
2018-04-29T08:11:46.889Z,22.28
2018-04-29T08:12:46.884Z,22.91
2018-04-29T08:14:39.768Z,23.63
2018-04-29T08:15:39.762Z,23.59
2018-04-29T08:17:32.632Z,21.24
2018-04-29T08:18:32.624Z,21.20
2018-04-29T08:20:25.514Z,23.61
2018-04-29T08:21:25.495Z,23.10
2018-04-29T08:23:18.373Z,23.43
2018-04-29T08:24:18.372Z,24.02
2018-04-29T08:26:11.282Z,22.44
2018-04-29T08:27:11.243Z,22.26
2018-04-29T08:29:04.125Z,23.46
2018-04-29T08:30:04.152Z,23.13
2018-04-29T08:31:57.023Z,23.93
2018-04-29T08:32:57.005Z,24.36
2018-04-29T08:34:49.884Z,25.18
2018-04-29T08:35:49.878Z,24.39
2018-04-29T08:37:42.771Z,24.20
2018-04-29T08:38:42.753Z,23.50
2018-04-29T08:40:35.639Z,24.26
2018-04-29T08:41:35.632Z,23.91
2018-04-29T08:43:28.525Z,24.57
2018-04-29T08:44:28.510Z,24.24
2018-04-29T08:46:21.394Z,22.45
2018-04-29T08:47:21.392Z,24.57
2018-04-29T08:49:14.286Z,24.23
2018-04-29T08:50:14.354Z,23.59
2018-04-29T08:52:07.152Z,24.20
2018-04-29T08:53:07.151Z,24.63
2018-04-29T08:55:00.112Z,25.04
2018-04-29T08:56:00.060Z,25.38
2018-04-29T08:57:52.919Z,26.16
2018-04-29T08:58:52.914Z,25.46
2018-04-29T09:00:45.809Z,23.24
2018-04-29T09:01:45.793Z,24.47
2018-04-29T09:03:38.720Z,25.41
2018-04-29T09:04:38.676Z,25.88
2018-04-29T09:06:31.590Z,27.33
2018-04-29T09:07:31.573Z,27.82
2018-04-29T09:09:24.461Z,28.59
2018-04-29T09:10:24.455Z,27.80
2018-04-29T09:12:17.360Z,26.56
2018-04-29T09:13:17.347Z,26.34
2018-04-29T09:15:10.236Z,26.21
2018-04-29T09:16:10.232Z,25.17
2018-04-29T09:18:03.174Z,25.77
2018-04-29T09:19:03.155Z,25.03
2018-04-29T09:20:56.060Z,25.47
2018-04-29T09:21:56.054Z,26.45
2018-04-29T09:23:48.949Z,26.85
2018-04-29T09:24:48.959Z,28.48
2018-04-29T09:26:41.824Z,24.88
2018-04-29T09:27:41.825Z,24.39
2018-04-29T09:29:34.721Z,24.26
2018-04-29T09:30:34.706Z,24.20
2018-04-29T09:32:27.601Z,24.48
2018-04-29T09:33:27.598Z,25.93
2018-04-29T09:35:20.498Z,26.03
2018-04-29T09:36:20.483Z,26.52
2018-04-29T09:38:13.468Z,24.96
2018-04-29T09:39:13.369Z,24.60
2018-04-29T09:41:06.269Z,24.14
2018-04-29T09:42:06.255Z,23.98
2018-04-29T09:43:59.137Z,25.87
2018-04-29T09:44:59.134Z,25.78
2018-04-29T09:46:52.034Z,26.29
2018-04-29T09:47:52.017Z,26.09
2018-04-29T09:49:44.901Z,25.35
2018-04-29T09:50:44.898Z,26.26
2018-04-29T09:52:37.844Z,25.22
2018-04-29T09:53:37.828Z,24.91
2018-04-29T09:55:30.710Z,25.80
2018-04-29T09:56:30.706Z,24.57
2018-04-29T09:58:23.607Z,25.73
2018-04-29T09:59:23.591Z,25.35
2018-04-29T10:01:16.556Z,25.10
2018-04-29T10:02:16.476Z,25.36
2018-04-29T10:04:09.376Z,25.73
2018-04-29T10:05:09.362Z,25.41
2018-04-29T10:07:02.246Z,25.48
2018-04-29T10:08:02.240Z,23.62
2018-04-29T10:09:55.136Z,24.99
2018-04-29T10:10:55.118Z,25.70
2018-04-29T10:12:48.047Z,25.08
2018-04-29T10:13:48.044Z,24.45
2018-04-29T10:15:40.941Z,24.58
2018-04-29T10:16:40.923Z,25.84
2018-04-29T10:18:33.811Z,26.45
2018-04-29T10:19:33.805Z,26.21
2018-04-29T10:21:26.766Z,24.16
2018-04-29T10:22:26.690Z,25.51
2018-04-29T10:24:19.573Z,26.05
2018-04-29T10:25:19.570Z,24.53
2018-04-29T10:27:12.475Z,24.78
2018-04-29T10:28:12.450Z,24.48
2018-04-29T10:30:05.335Z,23.61
2018-04-29T10:31:05.333Z,24.96
2018-04-29T10:32:58.274Z,27.64
2018-04-29T10:33:58.212Z,26.77
2018-04-29T10:35:51.095Z,25.83
2018-04-29T10:36:51.092Z,26.05
2018-04-29T10:38:43.994Z,26.83
2018-04-29T10:39:43.986Z,27.87
2018-04-29T10:41:36.860Z,26.19
2018-04-29T10:42:36.857Z,26.47
2018-04-29T10:44:29.755Z,26.09
2018-04-29T10:45:29.736Z,26.26
2018-04-29T10:47:22.672Z,28.70
2018-04-29T10:48:22.621Z,27.51
2018-04-29T10:50:15.526Z,25.46
2018-04-29T10:51:15.505Z,26.56
2018-04-29T10:53:08.390Z,28.30
2018-04-29T10:54:08.388Z,26.25
2018-04-29T10:56:01.286Z,27.59
2018-04-29T10:57:01.268Z,26.68
2018-04-29T10:58:54.157Z,26.74
2018-04-29T10:59:54.150Z,26.26
2018-04-29T11:01:47.048Z,27.14
2018-04-29T11:02:47.035Z,26.59
2018-04-29T11:04:39.916Z,27.55
2018-04-29T11:05:39.914Z,26.10
2018-04-29T11:07:32.809Z,26.41
2018-04-29T11:08:32.804Z,26.55
2018-04-29T11:10:25.677Z,26.38
2018-04-29T11:11:25.674Z,26.52
2018-04-29T11:13:18.571Z,27.00
2018-04-29T11:14:18.554Z,26.05
2018-04-29T11:16:11.439Z,28.17
2018-04-29T11:17:11.435Z,29.71
2018-04-29T11:19:04.331Z,28.51
2018-04-29T11:20:04.313Z,26.73
2018-04-29T11:21:57.198Z,24.91
2018-04-29T11:22:57.196Z,26.65
2018-04-29T11:24:50.092Z,26.51
2018-04-29T11:25:50.075Z,27.42
2018-04-29T11:27:42.953Z,25.32
2018-04-29T11:28:43.032Z,25.44
2018-04-29T11:30:35.843Z,26.44
2018-04-29T11:31:35.826Z,25.58
2018-04-29T11:33:28.710Z,26.77
2018-04-29T11:34:28.707Z,27.17
2018-04-29T11:36:21.599Z,25.95
2018-04-29T11:37:21.583Z,26.83
2018-04-29T11:39:14.462Z,26.99
2018-04-29T11:40:14.464Z,27.17
2018-04-29T11:42:07.354Z,26.55
2018-04-29T11:43:07.347Z,26.89
2018-04-29T11:45:00.220Z,26.55
2018-04-29T11:46:00.216Z,26.88
2018-04-29T11:47:53.112Z,26.68
2018-04-29T11:48:53.096Z,26.34
2018-04-29T11:50:45.977Z,26.15
2018-04-29T11:51:45.970Z,27.00
2018-04-29T11:53:38.868Z,26.36
2018-04-29T11:54:38.849Z,26.70
2018-04-29T11:56:31.734Z,27.00
2018-04-29T11:57:31.728Z,26.00
2018-04-29T11:59:24.636Z,25.95
2018-04-29T12:00:24.604Z,26.18
2018-04-29T12:02:17.479Z,25.77
2018-04-29T12:03:17.475Z,26.23
2018-04-29T12:05:10.373Z,27.20
2018-04-29T12:06:10.345Z,26.37
2018-04-29T12:08:03.234Z,27.44
2018-04-29T12:09:03.228Z,26.85
2018-04-29T12:10:56.124Z,26.59
2018-04-29T12:11:56.106Z,27.00
2018-04-29T12:13:48.983Z,26.52
2018-04-29T12:14:48.975Z,26.13
2018-04-29T12:16:41.867Z,26.45
2018-04-29T12:17:41.847Z,26.59
2018-04-29T12:19:34.722Z,28.14
2018-04-29T12:20:34.716Z,27.42
2018-04-29T12:22:27.609Z,26.93
2018-04-29T12:23:27.588Z,26.58
2018-04-29T12:25:20.469Z,26.51
2018-04-29T12:26:20.461Z,26.26
2018-04-29T12:28:13.355Z,26.70
2018-04-29T12:29:13.330Z,27.36
2018-04-29T12:31:06.211Z,28.05
2018-04-29T12:32:06.203Z,27.45
2018-04-29T12:33:59.100Z,27.30
2018-04-29T12:34:59.075Z,26.80
2018-04-29T12:36:51.958Z,27.36
2018-04-29T12:37:51.949Z,27.27
2018-04-29T12:39:44.842Z,26.99
2018-04-29T12:40:44.822Z,28.29
2018-04-29T12:42:37.698Z,26.43
2018-04-29T12:43:37.693Z,26.80
2018-04-29T12:45:30.587Z,27.64
2018-04-29T12:46:30.565Z,26.38
2018-04-29T12:48:23.445Z,27.18
2018-04-29T12:49:23.439Z,27.08
2018-04-29T12:51:16.413Z,26.62
2018-04-29T12:52:16.441Z,26.99
2018-04-29T12:54:09.882Z,26.85
2018-04-29T12:55:09.299Z,26.99
2018-04-29T12:57:02.292Z,26.58
2018-04-29T12:58:02.270Z,26.63
2018-04-29T12:59:55.169Z,26.55
2018-04-29T13:00:55.159Z,27.18
2018-04-29T13:02:48.050Z,27.60
2018-04-29T13:03:48.031Z,27.35
2018-04-29T13:05:40.918Z,27.03
2018-04-29T13:06:40.899Z,27.64
2018-04-29T13:08:33.791Z,27.15
2018-04-29T13:09:33.770Z,27.20
2018-04-29T13:11:26.643Z,28.20
2018-04-29T13:12:26.635Z,28.01
2018-04-29T13:14:19.526Z,27.65
2018-04-29T13:15:19.506Z,27.18
2018-04-29T13:17:12.384Z,27.63
2018-04-29T13:18:12.376Z,27.54
2018-04-29T13:20:05.265Z,27.78
2018-04-29T13:21:05.243Z,27.80
2018-04-29T13:22:58.122Z,27.90
2018-04-29T13:23:58.112Z,27.71
2018-04-29T13:25:51.002Z,27.59
2018-04-29T13:26:50.982Z,27.65
2018-04-29T13:28:43.858Z,26.97
2018-04-29T13:29:43.849Z,26.96
2018-04-29T13:31:36.736Z,26.97
2018-04-29T13:32:36.713Z,26.60
2018-04-29T13:34:29.597Z,27.30
2018-04-29T13:35:29.598Z,27.60
2018-04-29T13:37:22.472Z,28.22
2018-04-29T13:38:22.451Z,27.68
2018-04-29T13:40:15.326Z,27.80
2018-04-29T13:41:15.325Z,28.15
2018-04-29T13:43:08.224Z,28.23
2018-04-29T13:44:08.200Z,28.19
2018-04-29T13:46:01.074Z,27.64
2018-04-29T13:47:01.064Z,27.48
2018-04-29T13:48:53.956Z,27.64
2018-04-29T13:49:53.934Z,26.95
2018-04-29T13:51:46.810Z,26.90
2018-04-29T13:52:46.802Z,27.54
2018-04-29T13:54:39.689Z,27.74
2018-04-29T13:55:39.667Z,27.65
2018-04-29T13:57:32.539Z,28.72
2018-04-29T13:58:32.530Z,28.08
2018-04-29T14:00:25.423Z,28.10
2018-04-29T14:01:25.401Z,27.44
2018-04-29T14:03:18.282Z,27.75
2018-04-29T14:04:18.264Z,28.66
2018-04-29T14:06:11.154Z,29.08
2018-04-29T14:07:11.135Z,28.56
2018-04-29T14:09:04.010Z,28.19
2018-04-29T14:10:04.001Z,28.25
2018-04-29T14:11:56.891Z,28.78
2018-04-29T14:12:56.869Z,28.63
2018-04-29T14:14:49.751Z,27.83
2018-04-29T14:15:49.742Z,28.27
2018-04-29T14:17:42.628Z,27.45
2018-04-29T14:18:42.610Z,27.68
2018-04-29T14:20:35.478Z,27.30
2018-04-29T14:21:35.469Z,27.05
2018-04-29T14:23:28.429Z,27.40
2018-04-29T14:24:28.336Z,27.20
2018-04-29T14:26:21.205Z,27.17
2018-04-29T14:27:21.196Z,27.30
2018-04-29T14:29:14.097Z,27.29
2018-04-29T14:30:14.060Z,27.29
2018-04-29T14:32:06.940Z,27.64
2018-04-29T14:33:06.931Z,27.85
2018-04-29T14:34:59.819Z,27.82
2018-04-29T14:35:59.804Z,28.26
2018-04-29T14:37:52.675Z,27.51
2018-04-29T14:38:52.667Z,27.75
2018-04-29T14:40:45.551Z,27.82
2018-04-29T14:41:45.534Z,27.65
2018-04-29T14:43:38.397Z,27.83
2018-04-29T14:44:38.388Z,28.33
2018-04-29T14:46:31.275Z,28.01
2018-04-29T14:47:31.251Z,27.82
2018-04-29T14:49:24.132Z,27.89
2018-04-29T14:50:24.114Z,27.44
2018-04-29T14:52:17.007Z,27.44
2018-04-29T14:53:16.980Z,27.42
2018-04-29T14:55:09.856Z,27.15
2018-04-29T14:56:09.842Z,27.15
2018-04-29T14:58:02.729Z,27.36
2018-04-29T14:59:02.704Z,27.03
2018-04-29T15:00:55.575Z,27.03
2018-04-29T15:01:55.569Z,26.83
2018-04-29T15:03:48.449Z,26.70
2018-04-29T15:04:48.425Z,26.52
2018-04-29T15:06:41.296Z,26.55
2018-04-29T15:07:41.285Z,26.45
2018-04-29T15:09:34.167Z,26.89
2018-04-29T15:10:34.210Z,26.68
2018-04-29T15:12:27.014Z,26.84
2018-04-29T15:13:27.006Z,26.66
2018-04-29T15:15:19.885Z,26.68
2018-04-29T15:16:19.862Z,26.65
2018-04-29T15:18:12.733Z,26.68
2018-04-29T15:19:12.722Z,26.59
2018-04-29T15:21:05.673Z,26.73
2018-04-29T15:22:05.589Z,26.66
2018-04-29T15:23:58.460Z,26.80
2018-04-29T15:24:58.448Z,27.10
2018-04-29T15:26:51.329Z,27.03
2018-04-29T15:27:51.307Z,27.03
2018-04-29T15:29:44.186Z,27.17
2018-04-29T15:30:44.176Z,27.22
2018-04-29T15:32:37.060Z,27.26
2018-04-29T15:33:37.035Z,27.17
2018-04-29T15:35:29.983Z,27.45
2018-04-29T15:36:29.895Z,27.15
2018-04-29T15:38:22.791Z,27.29
2018-04-29T15:39:22.767Z,27.47
2018-04-29T15:41:15.637Z,27.52
2018-04-29T15:42:15.628Z,27.39
2018-04-29T15:44:08.510Z,27.27
2018-04-29T15:45:08.487Z,27.03
2018-04-29T15:47:01.363Z,27.03
2018-04-29T15:48:01.354Z,27.21
2018-04-29T15:49:54.237Z,27.30
2018-04-29T15:50:54.208Z,27.18
2018-04-29T15:52:47.089Z,27.18
2018-04-29T15:53:47.069Z,27.12
2018-04-29T15:55:39.951Z,27.10
2018-04-29T15:56:39.928Z,26.99
2018-04-29T15:58:32.801Z,27.12
2018-04-29T15:59:32.840Z,27.10
2018-04-29T16:01:25.679Z,27.40
2018-04-29T16:02:25.648Z,27.27
2018-04-29T16:04:18.519Z,27.37
2018-04-29T16:05:18.505Z,27.30
2018-04-29T16:07:11.386Z,27.15
2018-04-29T16:08:11.363Z,27.35
2018-04-29T16:10:04.234Z,27.32
2018-04-29T16:11:04.221Z,27.25
2018-04-29T16:12:57.103Z,27.27
2018-04-29T16:13:57.081Z,27.21
2018-04-29T16:15:49.949Z,27.18
2018-04-29T16:16:49.940Z,27.30
2018-04-29T16:18:42.833Z,27.05
2018-04-29T16:19:42.807Z,26.96
2018-04-29T16:21:35.677Z,27.05
2018-04-29T16:22:35.666Z,27.17
2018-04-29T16:24:28.556Z,27.15
2018-04-29T16:25:28.532Z,27.02
2018-04-29T16:27:21.405Z,26.97
2018-04-29T16:28:21.389Z,26.90
2018-04-29T16:30:14.275Z,26.92
2018-04-29T16:31:14.251Z,26.92
2018-04-29T16:33:07.120Z,26.84
2018-04-29T16:34:07.112Z,26.84
2018-04-29T16:35:59.987Z,26.88
2018-04-29T16:36:59.968Z,26.88
2018-04-29T16:38:52.841Z,26.83
2018-04-29T16:39:52.826Z,26.85
2018-04-29T16:41:45.723Z,26.90
2018-04-29T16:42:45.692Z,26.83
2018-04-29T16:44:38.555Z,26.84
2018-04-29T16:45:38.543Z,26.68
2018-04-29T16:47:31.427Z,26.77
2018-04-29T16:48:31.404Z,26.73
2018-04-29T16:50:24.273Z,26.68
2018-04-29T16:51:24.261Z,26.70
2018-04-29T16:53:17.146Z,26.75
2018-04-29T16:54:17.126Z,26.65
2018-04-29T16:56:10.066Z,26.68
2018-04-29T16:57:09.982Z,26.56
2018-04-29T16:59:02.862Z,26.62
2018-04-29T17:00:02.840Z,26.55
2018-04-29T17:01:55.710Z,26.52
2018-04-29T17:02:55.700Z,26.36
2018-04-29T17:04:48.579Z,26.36
2018-04-29T17:05:48.558Z,26.25
2018-04-29T17:07:41.423Z,26.37
2018-04-29T17:08:41.412Z,26.26
2018-04-29T17:10:34.313Z,26.21
2018-04-29T17:11:34.286Z,26.02
2018-04-29T17:13:27.155Z,26.16
2018-04-29T17:14:27.142Z,26.03
2018-04-29T17:16:20.032Z,25.93
2018-04-29T17:17:20.014Z,25.95
2018-04-29T17:19:12.890Z,25.87
2018-04-29T17:20:12.882Z,25.78
2018-04-29T17:22:05.758Z,25.72
2018-04-29T17:23:05.734Z,25.80
2018-04-29T17:24:58.603Z,25.72
2018-04-29T17:25:58.591Z,25.63
2018-04-29T17:27:51.477Z,25.63
2018-04-29T17:28:51.451Z,25.58
2018-04-29T17:30:44.329Z,25.50
2018-04-29T17:31:44.308Z,25.43
2018-04-29T17:33:37.196Z,25.41
2018-04-29T17:34:37.172Z,25.35
2018-04-29T17:36:30.061Z,25.33
2018-04-29T17:37:30.025Z,25.25
2018-04-29T17:39:22.901Z,25.25
2018-04-29T17:40:22.877Z,25.18
2018-04-29T17:42:15.742Z,25.14
2018-04-29T17:43:15.731Z,25.22
2018-04-29T17:45:08.611Z,25.06
2018-04-29T17:46:08.584Z,24.99
2018-04-29T17:48:01.453Z,25.07
2018-04-29T17:49:01.447Z,25.04
2018-04-29T17:50:54.321Z,24.93
2018-04-29T17:51:54.297Z,24.88
2018-04-29T17:53:47.167Z,24.84
2018-04-29T17:54:47.152Z,24.80
2018-04-29T17:56:40.031Z,24.70
2018-04-29T17:57:40.006Z,24.68
2018-04-29T17:59:32.873Z,24.57
2018-04-29T18:00:32.858Z,24.61
2018-04-29T18:02:25.736Z,24.58
2018-04-29T18:03:25.712Z,24.60
2018-04-29T18:05:18.576Z,24.53
2018-04-29T18:06:18.586Z,24.55
2018-04-29T18:08:11.441Z,24.51
2018-04-29T18:09:11.414Z,24.45
2018-04-29T18:11:04.283Z,24.32
2018-04-29T18:12:04.273Z,24.30
2018-04-29T18:13:57.147Z,24.23
2018-04-29T18:14:57.125Z,24.21
2018-04-29T18:16:49.985Z,24.21
2018-04-29T18:17:49.971Z,24.06
2018-04-29T18:19:42.850Z,24.10
2018-04-29T18:20:42.824Z,24.10
2018-04-29T18:22:35.688Z,24.01
2018-04-29T18:23:35.682Z,23.88
2018-04-29T18:25:28.555Z,23.87
2018-04-29T18:26:28.529Z,23.81
2018-04-29T18:28:21.392Z,23.92
2018-04-29T18:29:21.379Z,23.98
2018-04-29T18:31:14.255Z,23.88
2018-04-29T18:32:14.232Z,23.99